createdAt,value
2022-08-10T00:00:37.108Z,2.83
2022-08-10T00:02:44.619Z,3.10
2022-08-10T00:04:52.573Z,4.13
2022-08-10T00:06:57.039Z,3.87
2022-08-10T00:09:04.016Z,4.03
2022-08-10T00:11:15.368Z,3.53
2022-08-10T00:13:20.787Z,3.87
2022-08-10T00:15:52.746Z,3.93
2022-08-10T00:17:51.795Z,3.80
2022-08-10T00:20:03.785Z,3.10
2022-08-10T00:22:16.896Z,4.10
2022-08-10T00:24:26.537Z,3.97
2022-08-10T00:27:58.521Z,3.97
2022-08-10T00:28:58.993Z,3.10
2022-08-10T00:31:03.475Z,3.67
2022-08-10T00:33:07.299Z,3.57
2022-08-10T00:35:13.470Z,4.00
2022-08-10T00:37:18.572Z,3.10
2022-08-10T00:39:23.608Z,3.43
2022-08-10T00:41:28.289Z,3.67
2022-08-10T00:43:35.342Z,3.20
2022-08-10T00:45:39.448Z,3.17
2022-08-10T00:47:46.087Z,3.53
2022-08-10T00:49:52.821Z,4.30
2022-08-10T00:51:56.512Z,3.60
2022-08-10T00:54:02.618Z,3.80
2022-08-10T00:57:14.271Z,4.33
2022-08-10T00:58:32.155Z,3.20
2022-08-10T01:00:37.377Z,3.40
2022-08-10T01:02:44.109Z,3.80
2022-08-10T01:04:59.317Z,3.93
2022-08-10T01:07:16.167Z,3.80
2022-08-10T01:09:34.136Z,3.83
2022-08-10T01:12:38.865Z,3.73
2022-08-10T01:14:13.099Z,3.63
2022-08-10T01:16:27.622Z,3.80
2022-08-10T01:18:37.992Z,4.57
2022-08-10T01:20:53.864Z,3.97
2022-08-10T01:23:24.645Z,3.10
2022-08-10T01:26:12.479Z,3.40
2022-08-10T01:28:23.489Z,2.67
2022-08-10T01:30:34.093Z,3.20
2022-08-10T01:32:59.114Z,2.90
2022-08-10T01:35:14.148Z,3.10
2022-08-10T01:37:23.251Z,3.50
2022-08-10T01:39:30.215Z,3.53
2022-08-10T01:41:46.201Z,3.50
2022-08-10T01:44:03.747Z,3.30
2022-08-10T01:46:12.946Z,2.50
2022-08-10T01:48:29.441Z,2.83
2022-08-10T01:50:35.802Z,2.60
2022-08-10T01:53:06.560Z,2.87
2022-08-10T01:55:13.933Z,2.87
2022-08-10T01:57:19.221Z,2.27
2022-08-10T01:59:29.213Z,2.43
2022-08-10T02:01:40.933Z,2.93
2022-08-10T02:04:01.659Z,2.83
2022-08-10T02:06:13.259Z,2.47
2022-08-10T02:08:18.649Z,3.00
2022-08-10T02:10:26.100Z,2.77
2022-08-10T02:12:31.230Z,2.67
2022-08-10T02:14:36.936Z,3.07
2022-08-10T02:16:44.786Z,2.77
2022-08-10T02:18:49.293Z,2.80
2022-08-10T02:20:54.441Z,2.83
2022-08-10T02:22:59.989Z,2.33
2022-08-10T02:25:08.136Z,3.30
2022-08-10T02:27:12.589Z,2.87
2022-08-10T02:29:18.580Z,2.80
2022-08-10T02:31:24.078Z,2.33
2022-08-10T02:33:30.321Z,2.83
2022-08-10T02:35:54.529Z,2.80
2022-08-10T02:38:03.274Z,2.27
2022-08-10T02:40:07.597Z,2.50
2022-08-10T02:45:23.854Z,2.70
2022-08-10T02:45:27.144Z,2.40
2022-08-10T02:47:51.479Z,2.50
2022-08-10T02:50:03.944Z,3.13
2022-08-10T02:52:10.062Z,2.80
2022-08-10T02:54:20.003Z,2.90
2022-08-10T02:56:34.207Z,3.37
2022-08-10T02:58:44.866Z,2.67
2022-08-10T03:00:52.182Z,2.27
2022-08-10T03:02:58.193Z,2.77
2022-08-10T03:05:05.902Z,2.50
2022-08-10T03:07:12.702Z,2.50
2022-08-10T03:09:19.483Z,2.73
2022-08-10T03:12:36.289Z,2.17
2022-08-10T03:13:59.843Z,2.67
2022-08-10T03:16:07.845Z,2.97
2022-08-10T03:18:14.532Z,2.97
2022-08-10T03:20:38.215Z,3.17
2022-08-10T03:22:45.603Z,2.50
2022-08-10T03:24:50.233Z,2.93
2022-08-10T03:26:57.325Z,3.17
2022-08-10T03:29:05.321Z,2.70
2022-08-10T03:31:09.982Z,3.10
2022-08-10T03:33:14.337Z,2.80
2022-08-10T03:35:23.023Z,3.00
2022-08-10T03:37:27.692Z,2.80
2022-08-10T03:39:31.743Z,2.77
2022-08-10T03:41:47.801Z,2.67
2022-08-10T03:44:03.353Z,2.73
2022-08-10T03:46:11.524Z,2.60
2022-08-10T03:48:15.811Z,3.23
2022-08-10T03:50:45.678Z,2.37
2022-08-10T03:52:47.496Z,2.90
2022-08-10T03:54:52.442Z,3.50
2022-08-10T03:56:56.294Z,3.00
2022-08-10T03:59:03.276Z,2.40
2022-08-10T04:01:07.486Z,3.50
2022-08-10T04:03:12.858Z,3.10
2022-08-10T04:05:38.796Z,2.93
2022-08-10T04:07:47.059Z,2.63
2022-08-10T04:09:55.382Z,2.83
2022-08-10T04:11:59.992Z,2.10
2022-08-10T04:14:04.177Z,3.57
2022-08-10T04:16:08.387Z,2.73
2022-08-10T04:18:12.764Z,3.47
2022-08-10T04:20:21.834Z,2.90
2022-08-10T04:22:28.599Z,3.00
2022-08-10T04:24:35.609Z,3.53
2022-08-10T04:26:40.387Z,2.93
2022-08-10T04:28:49.018Z,3.13
2022-08-10T04:30:55.061Z,3.80
2022-08-10T04:33:03.679Z,3.23
2022-08-10T04:35:12.416Z,3.43
2022-08-10T04:37:17.445Z,2.60
2022-08-10T04:39:22.655Z,2.40
2022-08-10T04:41:30.143Z,3.30
2022-08-10T04:43:35.564Z,3.20
2022-08-10T04:45:48.361Z,3.50
2022-08-10T04:48:00.544Z,3.30
2022-08-10T04:50:08.593Z,2.40
2022-08-10T04:52:17.490Z,2.67
2022-08-10T04:54:21.471Z,2.90
2022-08-10T04:56:32.047Z,2.90
2022-08-10T04:58:36.314Z,3.43
2022-08-10T05:00:42.056Z,3.23
2022-08-10T05:02:46.588Z,2.70
2022-08-10T05:04:52.937Z,2.93
2022-08-10T05:06:56.791Z,2.87
2022-08-10T05:09:01.513Z,2.87
2022-08-10T05:11:05.688Z,2.30
2022-08-10T05:13:12.495Z,2.67
2022-08-10T05:15:18.604Z,2.60
2022-08-10T05:17:22.758Z,2.50
2022-08-10T05:20:04.639Z,2.90
2022-08-10T05:22:03.545Z,2.40
2022-08-10T05:24:09.114Z,2.33
2022-08-10T05:26:13.125Z,3.70
2022-08-10T05:28:18.073Z,2.57
2022-08-10T05:30:25.044Z,2.47
2022-08-10T05:32:28.716Z,3.20
2022-08-10T05:34:32.957Z,3.40
2022-08-10T05:36:37.405Z,3.00
2022-08-10T05:38:41.692Z,2.27
2022-08-10T05:40:47.848Z,2.27
2022-08-10T05:42:52.988Z,2.30
2022-08-10T05:44:58.452Z,1.80
2022-08-10T05:47:02.685Z,2.00
2022-08-10T05:49:06.527Z,2.10
2022-08-10T05:51:11.824Z,2.20
2022-08-10T05:53:23.138Z,2.20
2022-08-10T05:55:39.453Z,2.10
2022-08-10T05:57:46.802Z,2.10
2022-08-10T06:00:29.459Z,1.83
2022-08-10T06:02:41.705Z,1.60
2022-08-10T06:04:47.710Z,2.10
2022-08-10T06:06:53.736Z,2.10
2022-08-10T06:08:59.447Z,2.10
2022-08-10T06:12:23.819Z,1.97
2022-08-10T06:14:00.058Z,2.33
2022-08-10T06:16:18.195Z,2.83
2022-08-10T06:18:22.734Z,2.77
2022-08-10T06:20:26.574Z,2.23
2022-08-10T06:22:33.606Z,2.57
2022-08-10T06:25:04.693Z,2.67
2022-08-10T06:27:07.420Z,2.60
2022-08-10T06:29:14.121Z,2.07
2022-08-10T06:31:20.039Z,2.53
2022-08-10T06:33:25.560Z,2.10
2022-08-10T06:35:35.910Z,1.70
2022-08-10T06:37:43.300Z,2.90
2022-08-10T06:39:57.997Z,2.07
2022-08-10T06:42:15.783Z,2.20
2022-08-10T06:44:27.512Z,2.07
2022-08-10T06:46:36.574Z,2.50
2022-08-10T06:48:43.602Z,2.07
2022-08-10T06:50:58.814Z,1.80
2022-08-10T06:53:06.692Z,1.67
2022-08-10T06:55:16.974Z,2.10
2022-08-10T06:57:23.750Z,1.60
2022-08-10T06:59:29.367Z,1.70
2022-08-10T07:01:35.792Z,2.00
2022-08-10T07:03:45.114Z,1.60
2022-08-10T07:05:51.459Z,1.93
2022-08-10T07:07:58.133Z,1.60
2022-08-10T07:10:02.698Z,1.70
2022-08-10T07:12:09.372Z,1.40
2022-08-10T07:14:18.393Z,1.50
2022-08-10T07:16:28.351Z,1.77
2022-08-10T07:18:44.128Z,1.73
2022-08-10T07:20:49.341Z,1.47
2022-08-10T07:23:05.833Z,1.40
2022-08-10T07:25:21.618Z,1.60
2022-08-10T07:27:26.180Z,1.87
2022-08-10T07:29:54.327Z,1.23
2022-08-10T07:31:58.591Z,1.60
2022-08-10T07:34:06.634Z,1.43
2022-08-10T07:36:12.330Z,1.90
2022-08-10T07:38:19.317Z,1.40
2022-08-10T07:40:25.282Z,1.60
2022-08-10T07:42:31.205Z,1.30
2022-08-10T07:44:35.817Z,1.27
2022-08-10T07:46:41.421Z,1.57
2022-08-10T07:48:49.879Z,1.90
2022-08-10T07:50:59.422Z,1.20
2022-08-10T07:53:05.505Z,1.43
2022-08-10T07:55:10.282Z,1.57
2022-08-10T07:57:24.952Z,1.60
2022-08-10T07:59:39.675Z,1.73
2022-08-10T08:01:45.555Z,1.30
2022-08-10T08:04:05.929Z,1.90
2022-08-10T08:06:16.998Z,1.63
2022-08-10T08:08:22.767Z,1.60
2022-08-10T08:10:28.781Z,1.67
2022-08-10T08:12:37.188Z,1.63
2022-08-10T08:14:45.399Z,1.30
2022-08-10T08:16:51.329Z,1.50
2022-08-10T08:19:26.438Z,1.60
2022-08-10T08:24:05.427Z,1.97
2022-08-10T08:24:09.205Z,1.33
2022-08-10T08:26:11.164Z,2.07
2022-08-10T08:28:15.649Z,1.30
2022-08-10T08:30:27.020Z,1.53
2022-08-10T08:32:35.124Z,1.40
2022-08-10T08:34:41.515Z,0.97
2022-08-10T08:36:47.026Z,1.30
2022-08-10T08:38:51.257Z,1.60
2022-08-10T08:41:41.641Z,1.10
2022-08-10T08:43:55.763Z,1.50
2022-08-10T08:46:33.380Z,1.63
2022-08-10T08:48:55.237Z,1.50
2022-08-10T08:51:18.869Z,1.40
2022-08-10T08:54:03.015Z,1.57
2022-08-10T08:56:16.690Z,1.27
2022-08-10T08:58:37.220Z,1.43
2022-08-10T09:00:44.416Z,1.20
2022-08-10T09:03:05.175Z,1.43
2022-08-10T09:05:23.065Z,1.33
2022-08-10T09:08:00.350Z,1.70
2022-08-10T09:10:13.173Z,1.37
2022-08-10T09:12:46.716Z,1.70
2022-08-10T09:14:57.511Z,1.50
2022-08-10T09:17:13.687Z,1.60
2022-08-10T09:19:34.992Z,1.50
2022-08-10T09:21:58.624Z,1.83
2022-08-10T09:24:20.352Z,1.33
2022-08-10T09:26:31.508Z,1.80
2022-08-10T09:28:40.624Z,1.23
2022-08-10T09:31:10.771Z,1.43
2022-08-10T09:36:24.755Z,1.67
2022-08-10T09:36:26.997Z,1.30
2022-08-10T09:38:24.871Z,1.43
2022-08-10T09:40:59.768Z,1.30
2022-08-10T09:43:25.785Z,1.97
2022-08-10T09:45:36.918Z,1.27
2022-08-10T09:48:02.403Z,1.63
2022-08-10T09:50:58.978Z,1.27
2022-08-10T09:53:10.082Z,1.50
2022-08-10T09:55:18.688Z,1.20
2022-08-10T09:57:43.965Z,1.60
2022-08-10T10:00:10.603Z,1.47
2022-08-10T10:02:27.670Z,1.30
2022-08-10T10:04:38.953Z,1.63
2022-08-10T10:06:55.829Z,1.30
2022-08-10T10:09:10.139Z,1.80
2022-08-10T10:11:20.672Z,2.00
2022-08-10T10:13:52.691Z,1.20
2022-08-10T10:16:10.278Z,1.60
2022-08-10T10:18:32.523Z,1.60
2022-08-10T10:20:43.701Z,1.77
2022-08-10T10:22:54.896Z,1.40
2022-08-10T10:25:21.143Z,1.50
2022-08-10T10:27:29.499Z,1.63
2022-08-10T10:29:57.342Z,1.17
2022-08-10T10:32:10.095Z,1.40
2022-08-10T10:34:20.547Z,1.20
2022-08-10T10:36:26.189Z,1.40
2022-08-10T10:38:38.337Z,1.50
2022-08-10T10:40:47.678Z,1.93
2022-08-10T10:42:54.515Z,1.23
2022-08-10T10:45:04.536Z,1.30
2022-08-10T10:47:47.761Z,1.20
2022-08-10T10:49:54.821Z,1.40
2022-08-10T10:52:02.531Z,1.00
2022-08-10T10:54:14.381Z,1.33
2022-08-10T10:56:20.773Z,1.40
2022-08-10T10:58:28.836Z,1.20
2022-08-10T11:00:37.148Z,1.17
2022-08-10T11:02:53.126Z,1.20
2022-08-10T11:05:00.194Z,1.23
2022-08-10T11:07:10.769Z,0.87
2022-08-10T11:10:05.014Z,1.33
2022-08-10T11:12:00.614Z,1.33
2022-08-10T11:14:26.908Z,1.37
2022-08-10T11:16:37.950Z,1.50
2022-08-10T11:18:51.067Z,1.10
2022-08-10T11:21:06.490Z,1.10
2022-08-10T11:23:18.063Z,1.20
2022-08-10T11:25:25.085Z,1.30
2022-08-10T11:27:40.585Z,1.10
2022-08-10T11:29:53.384Z,1.60
2022-08-10T11:32:04.558Z,1.50
2022-08-10T11:34:48.975Z,1.40
2022-08-10T11:36:55.169Z,1.60
2022-08-10T11:39:14.403Z,1.70
2022-08-10T11:42:08.803Z,1.70
2022-08-10T11:43:54.365Z,1.47
2022-08-10T11:46:07.807Z,1.53
2022-08-10T11:48:53.531Z,1.37
2022-08-10T11:50:49.563Z,1.53
2022-08-10T11:53:07.649Z,1.57
2022-08-10T11:55:15.690Z,1.67
2022-08-10T11:57:21.148Z,1.20
2022-08-10T11:59:49.189Z,1.60
2022-08-10T12:01:56.659Z,1.90
2022-08-10T12:04:03.921Z,1.50
2022-08-10T12:06:28.793Z,1.60
2022-08-10T12:10:02.910Z,1.63
2022-08-10T12:11:08.373Z,1.50
2022-08-10T12:13:13.890Z,1.60
2022-08-10T12:15:22.071Z,1.77
2022-08-10T12:17:29.230Z,1.60
2022-08-10T12:20:01.924Z,1.53
2022-08-10T12:22:07.782Z,1.40
2022-08-10T12:24:20.284Z,1.67
2022-08-10T12:26:28.414Z,1.30
2022-08-10T12:28:50.376Z,1.20
2022-08-10T12:31:05.369Z,1.57
2022-08-10T12:33:14.137Z,1.17
2022-08-10T12:35:27.443Z,1.67
2022-08-10T12:37:40.342Z,1.90
2022-08-10T12:40:06.886Z,1.20
2022-08-10T12:42:36.844Z,1.40
2022-08-10T12:44:54.566Z,1.63
2022-08-10T12:47:10.474Z,1.40
2022-08-10T12:49:23.724Z,1.57
2022-08-10T12:51:30.546Z,2.10
2022-08-10T12:53:53.982Z,1.50
2022-08-10T12:55:58.656Z,1.60
2022-08-10T12:58:57.650Z,1.67
2022-08-10T13:00:53.873Z,1.60
2022-08-10T13:03:04.732Z,2.00
2022-08-10T13:05:13.992Z,1.70
2022-08-10T13:08:26.110Z,2.00
2022-08-10T13:10:02.401Z,1.23
2022-08-10T13:12:36.017Z,1.60
2022-08-10T13:14:39.597Z,2.03
2022-08-10T13:16:48.482Z,1.53
2022-08-10T13:18:55.011Z,1.50
2022-08-10T13:21:20.074Z,1.60
2022-08-10T13:23:27.474Z,1.50
2022-08-10T13:25:35.119Z,1.83
2022-08-10T13:28:00.692Z,1.70
2022-08-10T13:30:10.426Z,1.43
2022-08-10T13:32:20.791Z,1.83
2022-08-10T13:34:43.766Z,1.80
2022-08-10T13:36:52.247Z,2.33
2022-08-10T13:38:58.422Z,1.70
2022-08-10T13:41:04.009Z,1.60
2022-08-10T13:43:10.332Z,1.80
2022-08-10T13:45:16.848Z,1.60
2022-08-10T13:47:29.300Z,2.27
2022-08-10T13:49:44.971Z,1.70
2022-08-10T13:51:56.606Z,1.27
2022-08-10T13:54:04.189Z,1.70
2022-08-10T13:56:14.605Z,1.60
2022-08-10T13:58:23.763Z,1.77
2022-08-10T14:00:38.248Z,2.10
2022-08-10T14:02:44.785Z,1.57
2022-08-10T14:04:48.838Z,1.80
2022-08-10T14:06:56.624Z,1.77
2022-08-10T14:09:05.962Z,1.63
2022-08-10T14:11:18.029Z,1.67
2022-08-10T14:13:25.054Z,1.67
2022-08-10T14:15:33.894Z,1.50
2022-08-10T14:17:44.609Z,1.30
2022-08-10T14:19:59.054Z,1.57
2022-08-10T14:22:04.081Z,1.50
2022-08-10T14:24:08.356Z,1.60
2022-08-10T14:26:16.833Z,1.23
2022-08-10T14:28:22.524Z,1.50
2022-08-10T14:30:28.897Z,1.63
2022-08-10T14:32:44.120Z,1.73
2022-08-10T14:36:16.610Z,1.63
2022-08-10T14:37:17.649Z,1.47
2022-08-10T14:39:23.757Z,1.30
2022-08-10T14:42:03.318Z,1.57
2022-08-10T14:43:59.893Z,1.70
2022-08-10T14:46:07.041Z,1.40
2022-08-10T14:48:15.770Z,1.70
2022-08-10T14:50:31.698Z,2.53
2022-08-10T14:52:45.262Z,1.40
2022-08-10T14:54:53.954Z,1.47
2022-08-10T14:57:11.176Z,1.57
2022-08-10T14:59:19.511Z,1.00
2022-08-10T15:02:37.506Z,1.77
2022-08-10T15:04:01.028Z,1.50
2022-08-10T15:06:18.057Z,1.53
2022-08-10T15:08:26.349Z,1.63
2022-08-10T15:10:30.452Z,1.83
2022-08-10T15:12:38.467Z,1.83
2022-08-10T15:14:45.918Z,1.80
2022-08-10T15:16:50.378Z,1.80
2022-08-10T15:18:59.063Z,1.80
2022-08-10T15:21:17.450Z,1.93
2022-08-10T15:23:29.836Z,1.77
2022-08-10T15:25:57.650Z,1.60
2022-08-10T15:28:13.592Z,1.53
2022-08-10T15:30:20.489Z,2.10
2022-08-10T15:32:50.418Z,1.80
2022-08-10T15:35:13.681Z,1.80
2022-08-10T15:37:36.363Z,1.57
2022-08-10T15:40:25.401Z,1.57
2022-08-10T15:42:22.760Z,1.93
2022-08-10T15:44:38.612Z,2.43
2022-08-10T15:46:47.329Z,1.60
2022-08-10T15:49:09.223Z,1.20
2022-08-10T15:51:21.287Z,1.40
2022-08-10T15:53:33.311Z,1.83
2022-08-10T15:55:54.825Z,1.60
2022-08-10T15:58:05.799Z,1.67
2022-08-10T16:00:18.240Z,1.30
2022-08-10T16:02:25.403Z,1.53
2022-08-10T16:04:34.483Z,1.60
2022-08-10T16:06:45.989Z,1.70
2022-08-10T16:08:57.111Z,1.83
2022-08-10T16:11:24.302Z,1.67
2022-08-10T16:13:50.293Z,1.50
2022-08-10T16:16:04.358Z,1.57
2022-08-10T16:18:11.209Z,1.70
2022-08-10T16:20:25.051Z,1.40
2022-08-10T16:22:35.983Z,1.33
2022-08-10T16:24:47.729Z,1.50
2022-08-10T16:26:54.259Z,1.03
2022-08-10T16:29:06.431Z,1.90
2022-08-10T16:31:18.458Z,1.20
2022-08-10T16:33:52.440Z,1.20
2022-08-10T16:35:55.248Z,1.80
2022-08-10T16:38:00.224Z,1.40
2022-08-10T16:40:05.536Z,1.47
2022-08-10T16:42:10.855Z,1.67
2022-08-10T16:44:18.518Z,1.40
2022-08-10T16:46:27.470Z,1.83
2022-08-10T16:48:48.733Z,1.23
2022-08-10T16:50:58.191Z,1.60
2022-08-10T16:53:06.053Z,1.30
2022-08-10T16:55:24.762Z,1.63
2022-08-10T16:57:44.058Z,1.60
2022-08-10T16:59:49.451Z,1.80
2022-08-10T17:01:57.534Z,1.70
2022-08-10T17:04:10.119Z,2.10
2022-08-10T17:06:20.848Z,1.97
2022-08-10T17:08:27.383Z,1.73
2022-08-10T17:10:36.299Z,2.10
2022-08-10T17:12:41.596Z,1.57
2022-08-10T17:15:09.129Z,1.97
2022-08-10T17:17:19.646Z,1.30
2022-08-10T17:19:29.422Z,1.57
2022-08-10T17:21:38.275Z,1.23
2022-08-10T17:23:58.022Z,1.50
2022-08-10T17:26:07.439Z,1.33
2022-08-10T17:28:18.645Z,1.53
2022-08-10T17:30:57.458Z,1.60
2022-08-10T17:33:05.780Z,1.67
2022-08-10T17:35:22.532Z,1.73
2022-08-10T17:37:33.193Z,1.97
2022-08-10T17:39:44.154Z,1.60
2022-08-10T17:41:54.653Z,1.90
2022-08-10T17:44:02.688Z,1.63
2022-08-10T17:46:07.575Z,1.70
2022-08-10T17:48:14.118Z,2.33
2022-08-10T17:50:24.424Z,1.83
2022-08-10T17:52:35.889Z,2.37
2022-08-10T17:54:44.292Z,1.80
2022-08-10T17:56:49.330Z,2.20
2022-08-10T17:58:55.013Z,1.87
2022-08-10T18:01:38.317Z,1.60
2022-08-10T18:03:26.548Z,1.90
2022-08-10T18:05:34.622Z,2.03
2022-08-10T18:07:39.987Z,2.00
2022-08-10T18:09:46.747Z,1.70
2022-08-10T18:11:52.867Z,2.20
2022-08-10T18:13:58.825Z,2.00
2022-08-10T18:16:04.058Z,1.47
2022-08-10T18:18:15.989Z,1.47
2022-08-10T18:20:28.317Z,2.20
2022-08-10T18:22:35.466Z,1.60
2022-08-10T18:24:39.938Z,1.50
2022-08-10T18:26:44.150Z,2.50
2022-08-10T18:28:48.441Z,1.43
2022-08-10T18:30:53.256Z,1.93
2022-08-10T18:32:58.356Z,1.67
2022-08-10T18:35:04.115Z,2.10
2022-08-10T18:37:10.821Z,1.53
2022-08-10T18:39:15.857Z,1.87
2022-08-10T18:41:23.801Z,1.90
2022-08-10T18:44:06.585Z,1.67
2022-08-10T18:45:57.427Z,2.00
2022-08-10T18:48:03.053Z,1.33
2022-08-10T18:50:09.001Z,2.00
2022-08-10T18:52:18.596Z,2.30
2022-08-10T18:54:39.876Z,1.60
2022-08-10T18:56:57.802Z,2.00
2022-08-10T18:59:13.354Z,2.00
2022-08-10T19:01:30.650Z,1.70
2022-08-10T19:04:04.885Z,2.70
2022-08-10T19:06:20.840Z,1.67
2022-08-10T19:09:04.484Z,2.40
2022-08-10T19:11:27.959Z,2.60
2022-08-10T19:13:35.006Z,1.77
2022-08-10T19:15:46.513Z,2.20
2022-08-10T19:18:06.384Z,1.93
2022-08-10T19:20:24.254Z,2.03
2022-08-10T19:22:43.450Z,2.10
2022-08-10T19:24:58.156Z,1.93
2022-08-10T19:27:11.643Z,2.50
2022-08-10T19:30:08.375Z,2.07
2022-08-10T19:32:05.622Z,2.17
2022-08-10T19:34:24.434Z,2.07
2022-08-10T19:36:37.442Z,2.33
2022-08-10T19:38:50.867Z,2.10
2022-08-10T19:41:10.322Z,1.70
2022-08-10T19:43:30.753Z,2.30
2022-08-10T19:46:02.708Z,2.67
2022-08-10T19:48:20.961Z,1.90
2022-08-10T19:50:34.595Z,1.73
2022-08-10T19:52:48.613Z,2.07
2022-08-10T19:55:00.010Z,1.97
2022-08-10T19:57:12.927Z,2.10
2022-08-10T20:00:15.610Z,2.47
2022-08-10T20:01:56.428Z,2.80
2022-08-10T20:04:05.527Z,3.07
2022-08-10T20:06:20.623Z,1.90
2022-08-10T20:08:29.760Z,1.80
2022-08-10T20:10:43.053Z,2.93
2022-08-10T20:12:56.223Z,2.57
2022-08-10T20:15:06.258Z,2.60
2022-08-10T20:17:18.018Z,2.23
2022-08-10T20:19:53.198Z,2.57
2022-08-10T20:21:58.667Z,2.63
2022-08-10T20:24:11.207Z,3.23
2022-08-10T20:26:24.187Z,1.80
2022-08-10T20:28:37.567Z,2.63
2022-08-10T20:30:50.010Z,2.60
2022-08-10T20:32:57.894Z,2.50
2022-08-10T20:35:08.038Z,2.40
2022-08-10T20:38:03.175Z,2.47
2022-08-10T20:39:55.969Z,2.43
2022-08-10T20:42:05.889Z,3.23
2022-08-10T20:44:21.000Z,2.23
2022-08-10T20:46:45.501Z,2.60
2022-08-10T20:49:11.403Z,2.60
2022-08-10T20:51:58.483Z,2.83
2022-08-10T20:53:55.686Z,2.03
2022-08-10T20:56:11.843Z,2.70
2022-08-10T20:58:37.653Z,2.90
2022-08-10T21:00:54.622Z,2.73
2022-08-10T21:03:22.031Z,2.73
2022-08-10T21:05:40.652Z,3.10
2022-08-10T21:08:02.890Z,2.20
2022-08-10T21:10:20.153Z,2.40
2022-08-10T21:12:46.206Z,2.50
2022-08-10T21:14:56.197Z,2.90
2022-08-10T21:17:13.862Z,2.57
2022-08-10T21:19:54.008Z,3.13
2022-08-10T21:22:16.844Z,3.13
2022-08-10T21:24:25.928Z,2.73
2022-08-10T21:26:41.346Z,2.83
2022-08-10T21:29:21.284Z,2.43
2022-08-10T21:31:48.520Z,2.50
2022-08-10T21:34:10.125Z,2.80
2022-08-10T21:36:22.207Z,2.90
2022-08-10T21:38:35.466Z,3.13
2022-08-10T21:41:18.689Z,2.87
2022-08-10T21:44:02.263Z,2.50
2022-08-10T21:46:39.940Z,2.80
2022-08-10T21:49:22.817Z,2.93
2022-08-10T21:52:01.418Z,3.50
2022-08-10T21:54:31.110Z,3.50
2022-08-10T21:56:59.768Z,2.97
2022-08-10T21:59:24.365Z,3.27
2022-08-10T22:01:56.658Z,3.93
2022-08-10T22:04:20.601Z,3.70
2022-08-10T22:06:52.302Z,3.47
2022-08-10T22:09:20.764Z,3.27
2022-08-10T22:11:45.135Z,2.83
2022-08-10T22:14:09.618Z,3.37
2022-08-10T22:16:43.329Z,4.10
2022-08-10T22:19:14.945Z,3.57
2022-08-10T22:21:52.030Z,2.87
2022-08-10T22:24:30.234Z,3.03
2022-08-10T22:27:01.439Z,3.50
2022-08-10T22:29:42.913Z,3.20
2022-08-10T22:32:15.858Z,3.37
2022-08-10T22:34:48.382Z,3.63
2022-08-10T22:37:32.208Z,3.67
2022-08-10T22:40:13.868Z,3.67
2022-08-10T22:42:58.957Z,3.20
2022-08-10T22:45:26.543Z,3.10
2022-08-10T22:47:50.373Z,3.70
2022-08-10T22:49:57.160Z,3.80
2022-08-10T22:52:16.161Z,4.37
2022-08-10T22:54:45.298Z,4.77
2022-08-10T22:57:07.297Z,4.53
2022-08-10T22:59:13.509Z,3.70
2022-08-10T23:01:40.751Z,5.03
2022-08-10T23:03:51.547Z,4.37
2022-08-10T23:06:02.184Z,3.87
2022-08-10T23:08:30.057Z,4.10
2022-08-10T23:10:40.333Z,4.47
2022-08-10T23:12:49.739Z,4.30
2022-08-10T23:15:15.793Z,4.20
2022-08-10T23:18:00.418Z,4.43
2022-08-10T23:20:10.269Z,3.70
2022-08-10T23:22:16.253Z,5.77
2022-08-10T23:24:28.903Z,3.93
2022-08-10T23:26:34.598Z,3.90
2022-08-10T23:28:58.199Z,5.13
2022-08-10T23:31:12.472Z,4.40
2022-08-10T23:33:38.302Z,3.50
2022-08-10T23:36:05.480Z,3.10
2022-08-10T23:38:16.677Z,3.17
2022-08-10T23:40:23.409Z,3.50
2022-08-10T23:42:37.795Z,3.73
2022-08-10T23:44:45.137Z,4.17
2022-08-10T23:46:49.806Z,3.40
2022-08-10T23:48:55.861Z,4.17
2022-08-10T23:51:03.491Z,3.10
2022-08-10T23:53:28.875Z,3.30
2022-08-10T23:55:49.442Z,3.20
2022-08-10T23:57:59.721Z,3.33
